Weather observations for the past three days for
Provincetown Municipal Airport
Metric (Imperial)
Date Time (edt) Wind (kph) Vis. (km) Weather Sky Cond. Temperature (ºC) Relative Humidity Wind Chill (°C) Heat Index (°C) Pressure Precipitation (cm)
Air Dwpt 6 hour altimeter (cm) sea level (mb) 1 hr 3 hr 6 hr
Max. Min.
06 21:56 SW 31 G 44 11.27 Overcast BKN006 OVC010 13 0 0% 75.59 1007.7
06 20:56 S 26 11.27 Light Rain BKN003 OVC010 13 0 0% 75.62 1008.1
06 19:56 S 22 G 35 4.83 Light Rain OVC010 13 0 15.6 12.8 0% 75.62 1008.1
06 18:56 S 24 G 35 8.05 Light Rain BKN017 OVC023 13 0 0% 75.67 1008.7
06 17:56 S 26 G 41 14.48 Light Rain BKN027 BKN100 13.3 13.3 100% 75.67 1008.8
06 16:56 S 20 G 31 16.09 Overcast OVC032 13.3 13.3 100% 75.72 1009.5
06 15:56 S 28 G 37 16.09 Overcast OVC032 14.4 13.9 97% 75.74 1009.6
06 14:56 S 28 G 37 16.09 Overcast OVC032 14.4 13.3 93% 75.79 1010.2
06 13:56 S 28 16.09 Partly Cloudy SCT032 15.6 13.3 17.8 14.4 86% 75.84 1011.1
06 12:56 S 31 G 43 16.09 Partly Cloudy SCT030 16.7 13.3 80% 75.87 1011.5
06 11:56 S 28 G 37 16.09 Fair CLR 16.7 13.9 84% 75.92 1012.2
06 10:56 S 26 G 37 16.09 Fair CLR 16.7 13.3 80% 75.95 1012.3
06 09:56 S 26 G 39 16.09 Fair CLR 16.7 13.9 84% 75.97 1012.6
06 08:56 S 33 G 43 16.09 Fair and Breezy CLR 15.6 13.3 86% 75.92 1011.9
06 07:56 S 33 G 44 16.09 Fair and Breezy CLR 15 13.9 15 12.2 93% 75.97 1012.7
06 06:56 S 28 G 37 16.09 Fair CLR 13.9 13.9 100% 76 1012.9
06 05:56 S 33 G 43 16.09 Fair and Breezy CLR 13 0 0% 75.97 1012.7
06 04:56 S 31 G 46 16.09 Fair CLR 13 0 0% 75.97 1012.8
06 03:56 SW 31 G 43 16.09 Fair CLR 12.8 12.8 100% 75.97 1012.6
06 02:56 S 30 G 39 16.09 Fair CLR 12.8 12.8 100% 75.95 1012.5
06 01:56 S 30 16.09 Fair CLR 12.2 12.2 13.3 12.2 100% 75.97 1012.6
06 00:56 SW 35 G 48 16.09 Fair and Breezy CLR 12.2 12.2 100% 75.97 1012.9
05 23:56 S 31 16.09 Fair CLR 12.8 12.8 100% 75.97 1012.7
05 22:56 S 31 G 41 16.09 Fair CLR 12.8 12.2 96% 75.95 1012.4
05 21:56 S 31 16.09 Fair CLR 12.8 10.6 87% 75.97 1012.6
05 20:56 SW 30 G 43 16.09 Fair CLR 12.8 10.6 87% 75.95 1012.5
05 19:56 SW 43 G 56 16.09 Fair and Windy CLR 13.3 11.1 17.8 13.3 87% 75.84 1010.9
05 18:56 SW 39 G 50 16.09 Fair and Breezy CLR 13.9 11.1 83% 75.79 1010.5
05 17:56 S 30 G 39 16.09 Fair CLR 14.4 11.1 81% 75.79 1010.2
05 16:56 S 33 G 48 16.09 Fair and Breezy CLR 16.7 11.1 70% 75.77 1010.0
05 15:56 S 33 G 43 16.09 Fair and Breezy CLR 16.7 11.1 70% 75.77 1010.0
05 14:56 S 28 G 39 16.09 Fair CLR 17.2 11.7 70% 75.79 1010.2
05 13:56 S 33 G 43 16.09 Fair and Breezy CLR 17.2 11.7 17.8 12.8 70% 75.82 1010.8
05 12:56 S 24 G 35 16.09 Fair CLR 16.7 11.7 73% 75.87 1011.3
05 11:56 S 24 G 37 16.09 Fair CLR 15 11.1 78% 75.9 1011.7
05 10:56 S 28 G 41 16.09 Fair CLR 16.1 12.2 78% 75.9 1011.7
05 09:56 S 22 G 33 16.09 Fair CLR 15.6 12.2 80% 75.92 1012.2
05 08:56 S 26 G 39 16.09 Fair CLR 14.4 11.7 84% 75.9 1011.8
05 07:56 S 26 G 43 16.09 Fair CLR 12.8 11.7 12.8 9.4 93% 75.9 1011.7
05 06:56 S 20 16.09 A Few Clouds FEW001 11.1 11.1 100% 75.92 1012.0
05 05:56 S 19 16.09 Fair CLR 10 10 100% 8 75.9 1011.7
05 04:56 S 20 16.09 Fair CLR 10 0 0% 8 75.9 1011.6
05 03:56 S 20 16.09 Fair CLR 9 0 0% 6 75.9 1011.9
05 02:56 S 22 16.09 Fair CLR 10 0 0% 7 75.92 1012.0
05 01:56 S 22 16.09 Fair CLR 10 10 11.1 10 100% 7 75.9 1011.9
05 00:56 S 20 16.09 Fair CLR 10 10 100% 8 75.92 1012.1
04 23:56 S 24 16.09 Fair CLR 10 10 100% 7 75.95 1012.3
04 21:56 SW 30 16.09 Fair CLR 10.6 9.4 92% 75.95 1012.3
04 20:56 SW 33 16.09 Fair and Breezy CLR 10.6 8.3 86% 75.87 1011.3
04 19:56 SW 37 G 48 16.09 Fair and Breezy CLR 11.1 8.3 16.7 11.1 83% 75.79 1010.3
04 18:56 SW 37 G 48 16.09 Fair and Breezy CLR 11.7 7.2 74% 75.74 1009.6
04 17:56 SW 41 G 54 16.09 Fair and Breezy CLR 13.3 7.2 67% 75.72 1009.4
04 16:56 SW 44 G 57 16.09 Fair and Windy CLR 15 6.1 56% 75.72 1009.3
04 15:56 SW 44 G 57 16.09 Fair and Windy CLR 16.1 5.6 50% 75.69 1009.0
04 14:56 SW 35 G 56 16.09 Fair and Breezy CLR 15.6 7.2 58% 75.72 1009.2
04 13:56 SW 41 G 56 16.09 Fair and Breezy CLR 16.7 5 17.2 11.1 46% 75.69 1009.0
04 12:56 SW 33 G 43 16.09 Fair and Breezy CLR 16.7 7.2 54% 75.72 1009.5
04 11:56 SW 28 G 41 16.09 Fair CLR 16.1 7.8 58% 75.79 1010.3
04 10:56 SW 24 G 33 16.09 Fair CLR 16.7 6.1 50% 75.82 1010.7
04 09:56 SW 28 16.09 Fair CLR 14.4 6.1 58% 75.87 1011.3
04 08:56 SW 22 16.09 Fair CLR 12.2 5.6 64% 75.87 1011.4
04 07:56 SW 24 16.09 Partly Cloudy SCT085 11.1 6.1 11.1 6.1 72% 75.9 1011.7
04 06:56 SW 17 16.09 Overcast OVC075 9.4 5 74% 7 75.9 1011.7
04 05:56 SW 19 16.09 Overcast BKN060 OVC100 8.3 4.4 77% 6 75.87 1011.5
04 04:56 SW 15 16.09 Overcast OVC060 8.3 4.4 77% 6 75.87 1011.3
04 03:56 SW 15 16.09 Overcast BKN070 OVC085 8.3 3.9 74% 6 75.84 1011.1
04 02:56 W 13 16.09 Overcast OVC070 7.8 3.3 73% 6 75.84 1011.1
04 01:56 SW 13 16.09 Fair CLR 6.7 2.2 9.4 5 73% 4 75.84 1011.0
04 00:56 SW 15 16.09 Fair CLR 6.7 3.3 79% 4 75.84 1010.9
03 23:56 SW 15 16.09 Fair CLR 6.1 3.3 82% 3 75.82 1010.6
03 22:56 SW 13 16.09 Fair CLR 7.2 3.3 77% 5 75.79 1010.4
Date Time (edt) Wind (kph) Vis. (km) Weather Sky Cond. Air Dwpt Max. Min. Relative Humidity Wind Chill (°C) Heat Index (°C) altimeter (cm) sea level (mb) 1 hr 3 hr 6 hr
6 hour
Temperature (ºC) Pressure Precipitation (cm)